KCTZ/CTZ METAR and TAF weather

Enter ICAO airport designator
Station Type Date Time Source
KCTZ METAR 2018/04/21 12:55 UTC NOAA

KCTZ 211255Z AUTO 09003KT 10SM CLR 12/07 A3045 RMK AO2 T01170067


Station Type Date Time Source
KCTZ Decoded METAR 2018/04/21 12:55 UTC NOAA

Clinton, Sampson County Airport, NC, United States (KCTZ) 34-58-32N 078-21-53W
Apr 21, 2018 - 08:55 AM EDT / 2018.04.21 1255 UTC
Wind: from the E (090 degrees) at 3 MPH (3 KT):0
Visibility: 10 mile(s):0
Sky conditions: clear
Temperature: 53.1 F (11.7 C)
Dew Point: 44.1 F (6.7 C)
Relative Humidity: 71%
Pressure (altimeter): 30.45 in. Hg (1031 hPa)
ob: KCTZ 211255Z AUTO 09003KT 10SM CLR 12/07 A3045 RMK AO2 T01170067
cycle: 13

Station Type Date Time Source
KCTZ TAF UTC NOAA

Error!


Example: see airport list